sensor_id;sensor_type;location;lat;lon;timestamp;temperature;humidity
12815;DHT22;6472;52.328;13.070;2023-04-03T00:01:14;0.00;99.90
12815;DHT22;6472;52.328;13.070;2023-04-03T00:03:42;-0.10;99.90
12815;DHT22;6472;52.328;13.070;2023-04-03T00:06:11;-0.20;99.90
12815;DHT22;6472;52.328;13.070;2023-04-03T00:08:40;-0.30;99.90
12815;DHT22;6472;52.328;13.070;2023-04-03T00:11:08;-0.20;99.90
12815;DHT22;6472;52.328;13.070;2023-04-03T00:13:38;-0.30;99.90
12815;DHT22;6472;52.328;13.070;2023-04-03T00:16:08;-0.50;99.90
12815;DHT22;6472;52.328;13.070;2023-04-03T00:18:37;-0.50;99.90
12815;DHT22;6472;52.328;13.070;2023-04-03T00:21:06;-0.60;99.90
12815;DHT22;6472;52.328;13.070;2023-04-03T00:23:34;-0.60;99.90
12815;DHT22;6472;52.328;13.070;2023-04-03T00:26:02;-0.60;99.90
12815;DHT22;6472;52.328;13.070;2023-04-03T00:28:30;-0.60;99.90
12815;DHT22;6472;52.328;13.070;2023-04-03T00:31:00;-0.60;99.90
12815;DHT22;6472;52.328;13.070;2023-04-03T00:33:28;-0.60;99.90
12815;DHT22;6472;52.328;13.070;2023-04-03T00:35:56;-0.70;99.90
12815;DHT22;6472;52.328;13.070;2023-04-03T00:38:24;-0.60;99.90
12815;DHT22;6472;52.328;13.070;2023-04-03T00:40:52;-0.60;99.90
12815;DHT22;6472;52.328;13.070;2023-04-03T00:43:22;-0.70;99.90
12815;DHT22;6472;52.328;13.070;2023-04-03T00:45:52;-0.70;99.90
12815;DHT22;6472;52.328;13.070;2023-04-03T00:48:24;-0.80;99.90
12815;DHT22;6472;52.328;13.070;2023-04-03T00:50:54;-0.80;99.90
12815;DHT22;6472;52.328;13.070;2023-04-03T00:53:24;-0.80;99.90
12815;DHT22;6472;52.328;13.070;2023-04-03T00:55:54;-0.80;99.90
12815;DHT22;6472;52.328;13.070;2023-04-03T00:58:32;-0.90;99.90
12815;DHT22;6472;52.328;13.070;2023-04-03T01:01:05;-0.90;99.90
12815;DHT22;6472;52.328;13.070;2023-04-03T01:03:37;-0.90;99.90
12815;DHT22;6472;52.328;13.070;2023-04-03T01:06:05;-1.00;99.90
12815;DHT22;6472;52.328;13.070;2023-04-03T01:08:34;-1.00;99.90
12815;DHT22;6472;52.328;13.070;2023-04-03T01:11:03;-1.00;99.90
12815;DHT22;6472;52.328;13.070;2023-04-03T01:13:32;-1.10;99.90
12815;DHT22;6472;52.328;13.070;2023-04-03T01:16:04;-1.20;99.90
12815;DHT22;6472;52.328;13.070;2023-04-03T01:18:36;-1.20;99.90
12815;DHT22;6472;52.328;13.070;2023-04-03T01:24:30;-1.40;99.90
12815;DHT22;6472;52.328;13.070;2023-04-03T01:27:01;-1.40;99.90
12815;DHT22;6472;52.328;13.070;2023-04-03T01:29:30;-1.40;99.90
12815;DHT22;6472;52.328;13.070;2023-04-03T01:32:01;-1.50;99.90
12815;DHT22;6472;52.328;13.070;2023-04-03T01:34:30;-1.50;99.90
12815;DHT22;6472;52.328;13.070;2023-04-03T01:36:58;-1.60;99.90
12815;DHT22;6472;52.328;13.070;2023-04-03T01:39:26;-1.60;99.90
12815;DHT22;6472;52.328;13.070;2023-04-03T01:41:54;-1.70;99.90
12815;DHT22;6472;52.328;13.070;2023-04-03T01:44:22;-1.70;99.90
12815;DHT22;6472;52.328;13.070;2023-04-03T01:46:51;-1.70;99.90
12815;DHT22;6472;52.328;13.070;2023-04-03T01:49:20;-1.80;99.90
12815;DHT22;6472;52.328;13.070;2023-04-03T01:51:48;-1.80;99.90
12815;DHT22;6472;52.328;13.070;2023-04-03T01:54:16;-1.90;99.90
12815;DHT22;6472;52.328;13.070;2023-04-03T01:56:44;-1.90;99.90
12815;DHT22;6472;52.328;13.070;2023-04-03T01:59:12;-2.00;99.90
12815;DHT22;6472;52.328;13.070;2023-04-03T02:01:43;-2.00;99.90
12815;DHT22;6472;52.328;13.070;2023-04-03T02:04:12;-2.10;99.90
12815;DHT22;6472;52.328;13.070;2023-04-03T02:06:42;-2.10;99.90
12815;DHT22;6472;52.328;13.070;2023-04-03T02:09:10;-2.10;99.90
12815;DHT22;6472;52.328;13.070;2023-04-03T02:11:38;-2.10;99.90
12815;DHT22;6472;52.328;13.070;2023-04-03T02:14:06;-2.10;99.90
12815;DHT22;6472;52.328;13.070;2023-04-03T02:16:34;-2.10;99.90
12815;DHT22;6472;52.328;13.070;2023-04-03T02:19:02;-2.20;99.90
12815;DHT22;6472;52.328;13.070;2023-04-03T02:21:30;-2.20;99.90
12815;DHT22;6472;52.328;13.070;2023-04-03T02:24:00;-2.10;99.90
12815;DHT22;6472;52.328;13.070;2023-04-03T02:26:29;-2.10;99.90
12815;DHT22;6472;52.328;13.070;2023-04-03T02:28:57;-2.40;99.90
12815;DHT22;6472;52.328;13.070;2023-04-03T02:31:25;-2.20;99.90
12815;DHT22;6472;52.328;13.070;2023-04-03T02:33:53;-2.20;99.90
12815;DHT22;6472;52.328;13.070;2023-04-03T02:36:21;-2.20;99.90
12815;DHT22;6472;52.328;13.070;2023-04-03T02:38:49;-2.30;99.90
12815;DHT22;6472;52.328;13.070;2023-04-03T02:41:19;-2.20;99.90
12815;DHT22;6472;52.328;13.070;2023-04-03T02:43:47;-2.30;99.90
12815;DHT22;6472;52.328;13.070;2023-04-03T02:46:15;-2.20;99.90
12815;DHT22;6472;52.328;13.070;2023-04-03T02:48:44;-2.20;99.90
12815;DHT22;6472;52.328;13.070;2023-04-03T02:51:12;-2.20;99.90
12815;DHT22;6472;52.328;13.070;2023-04-03T02:53:40;-2.20;99.90
12815;DHT22;6472;52.328;13.070;2023-04-03T02:56:08;-2.30;99.90
12815;DHT22;6472;52.328;13.070;2023-04-03T02:58:38;-2.30;99.90
12815;DHT22;6472;52.328;13.070;2023-04-03T03:01:06;-2.30;99.90
12815;DHT22;6472;52.328;13.070;2023-04-03T03:03:34;-2.30;99.90
12815;DHT22;6472;52.328;13.070;2023-04-03T03:06:03;-2.30;99.90
12815;DHT22;6472;52.328;13.070;2023-04-03T03:08:32;-2.30;99.90
12815;DHT22;6472;52.328;13.070;2023-04-03T03:11:00;-2.30;99.90
12815;DHT22;6472;52.328;13.070;2023-04-03T03:13:29;-2.30;99.90
12815;DHT22;6472;52.328;13.070;2023-04-03T03:15:59;-2.40;99.90
12815;DHT22;6472;52.328;13.070;2023-04-03T03:18:27;-2.40;99.90
12815;DHT22;6472;52.328;13.070;2023-04-03T03:20:57;-2.40;99.90
12815;DHT22;6472;52.328;13.070;2023-04-03T03:23:27;-2.50;99.90
12815;DHT22;6472;52.328;13.070;2023-04-03T03:25:56;-2.50;99.90
12815;DHT22;6472;52.328;13.070;2023-04-03T03:28:24;-2.50;99.90
12815;DHT22;6472;52.328;13.070;2023-04-03T03:30:53;-2.50;99.90
12815;DHT22;6472;52.328;13.070;2023-04-03T03:33:22;-2.30;99.90
12815;DHT22;6472;52.328;13.070;2023-04-03T03:35:51;-2.40;99.90
12815;DHT22;6472;52.328;13.070;2023-04-03T03:38:19;-2.40;99.90
12815;DHT22;6472;52.328;13.070;2023-04-03T03:40:48;-2.40;99.90
12815;DHT22;6472;52.328;13.070;2023-04-03T03:43:17;-2.50;99.90
12815;DHT22;6472;52.328;13.070;2023-04-03T03:45:50;-2.40;99.90
12815;DHT22;6472;52.328;13.070;2023-04-03T03:48:18;-2.40;99.90
12815;DHT22;6472;52.328;13.070;2023-04-03T03:50:47;-2.40;99.90
12815;DHT22;6472;52.328;13.070;2023-04-03T03:53:16;-2.40;99.90
12815;DHT22;6472;52.328;13.070;2023-04-03T03:55:44;-2.40;99.90
12815;DHT22;6472;52.328;13.070;2023-04-03T03:58:12;-2.40;99.90
12815;DHT22;6472;52.328;13.070;2023-04-03T04:00:41;-2.40;99.90
12815;DHT22;6472;52.328;13.070;2023-04-03T04:03:09;-2.50;99.90
12815;DHT22;6472;52.328;13.070;2023-04-03T04:05:37;-2.50;99.90
12815;DHT22;6472;52.328;13.070;2023-04-03T04:08:07;-2.50;99.90
12815;DHT22;6472;52.328;13.070;2023-04-03T04:10:35;-2.50;99.90
12815;DHT22;6472;52.328;13.070;2023-04-03T04:13:05;-2.50;99.90
12815;DHT22;6472;52.328;13.070;2023-04-03T04:15:33;-2.60;99.90
12815;DHT22;6472;52.328;13.070;2023-04-03T04:18:02;-2.60;99.90
12815;DHT22;6472;52.328;13.070;2023-04-03T04:20:30;-2.50;99.90
12815;DHT22;6472;52.328;13.070;2023-04-03T04:22:58;-2.50;99.90
12815;DHT22;6472;52.328;13.070;2023-04-03T04:25:28;-2.50;99.90
12815;DHT22;6472;52.328;13.070;2023-04-03T04:27:56;-2.50;99.90
12815;DHT22;6472;52.328;13.070;2023-04-03T04:30:26;-2.50;99.90
12815;DHT22;6472;52.328;13.070;2023-04-03T04:32:54;-2.50;99.90
12815;DHT22;6472;52.328;13.070;2023-04-03T04:35:22;-2.50;99.90
12815;DHT22;6472;52.328;13.070;2023-04-03T04:37:51;-2.50;99.90
12815;DHT22;6472;52.328;13.070;2023-04-03T04:40:19;-2.50;99.90
12815;DHT22;6472;52.328;13.070;2023-04-03T04:42:49;-2.50;99.90
12815;DHT22;6472;52.328;13.070;2023-04-03T04:45:18;-2.50;99.90
12815;DHT22;6472;52.328;13.070;2023-04-03T04:47:46;-2.50;99.90
12815;DHT22;6472;52.328;13.070;2023-04-03T04:50:14;-2.50;99.90
12815;DHT22;6472;52.328;13.070;2023-04-03T04:52:42;-2.30;99.90
12815;DHT22;6472;52.328;13.070;2023-04-03T04:55:10;-2.50;99.90
12815;DHT22;6472;52.328;13.070;2023-04-03T04:57:38;-2.50;99.90
12815;DHT22;6472;52.328;13.070;2023-04-03T05:00:09;-2.50;99.90
12815;DHT22;6472;52.328;13.070;2023-04-03T05:02:37;-2.40;99.90
12815;DHT22;6472;52.328;13.070;2023-04-03T05:05:06;-2.40;99.90
12815;DHT22;6472;52.328;13.070;2023-04-03T05:07:36;-2.30;99.90
12815;DHT22;6472;52.328;13.070;2023-04-03T05:10:05;-2.30;99.90
12815;DHT22;6472;52.328;13.070;2023-04-03T05:12:34;-2.10;99.90
12815;DHT22;6472;52.328;13.070;2023-04-03T05:15:02;-2.10;99.90
12815;DHT22;6472;52.328;13.070;2023-04-03T05:17:32;-2.00;99.90
12815;DHT22;6472;52.328;13.070;2023-04-03T05:20:01;-2.00;99.90
12815;DHT22;6472;52.328;13.070;2023-04-03T05:22:29;-1.90;99.90
12815;DHT22;6472;52.328;13.070;2023-04-03T05:24:57;-1.80;99.90
12815;DHT22;6472;52.328;13.070;2023-04-03T05:27:25;-1.70;99.90
12815;DHT22;6472;52.328;13.070;2023-04-03T05:29:55;-1.80;99.90
12815;DHT22;6472;52.328;13.070;2023-04-03T05:32:24;-1.60;99.90
12815;DHT22;6472;52.328;13.070;2023-04-03T05:34:54;-1.60;99.90
12815;DHT22;6472;52.328;13.070;2023-04-03T05:37:24;-1.50;99.90
12815;DHT22;6472;52.328;13.070;2023-04-03T05:39:52;-1.20;99.90
12815;DHT22;6472;52.328;13.070;2023-04-03T05:42:20;-0.70;99.90
12815;DHT22;6472;52.328;13.070;2023-04-03T05:44:48;0.30;99.90
12815;DHT22;6472;52.328;13.070;2023-04-03T05:47:17;1.20;99.90
12815;DHT22;6472;52.328;13.070;2023-04-03T05:49:45;2.00;99.90
12815;DHT22;6472;52.328;13.070;2023-04-03T05:52:19;1.70;99.90
12815;DHT22;6472;52.328;13.070;2023-04-03T05:54:48;1.30;99.90
12815;DHT22;6472;52.328;13.070;2023-04-03T05:57:16;1.00;99.90
12815;DHT22;6472;52.328;13.070;2023-04-03T05:59:44;0.90;99.90
12815;DHT22;6472;52.328;13.070;2023-04-03T06:02:15;0.90;99.90
12815;DHT22;6472;52.328;13.070;2023-04-03T06:04:44;0.90;99.90
12815;DHT22;6472;52.328;13.070;2023-04-03T06:07:13;0.90;99.90
12815;DHT22;6472;52.328;13.070;2023-04-03T06:09:43;1.00;99.90
12815;DHT22;6472;52.328;13.070;2023-04-03T06:12:12;1.00;99.90
12815;DHT22;6472;52.328;13.070;2023-04-03T06:14:39;1.00;99.90
12815;DHT22;6472;52.328;13.070;2023-04-03T06:17:08;1.10;99.90
12815;DHT22;6472;52.328;13.070;2023-04-03T06:19:36;1.20;99.90
12815;DHT22;6472;52.328;13.070;2023-04-03T06:22:04;1.30;99.90
12815;DHT22;6472;52.328;13.070;2023-04-03T06:24:32;1.30;99.90
12815;DHT22;6472;52.328;13.070;2023-04-03T06:27:02;1.40;99.90
12815;DHT22;6472;52.328;13.070;2023-04-03T06:29:30;1.50;99.90
12815;DHT22;6472;52.328;13.070;2023-04-03T06:31:58;1.80;99.90
12815;DHT22;6472;52.328;13.070;2023-04-03T06:34:26;1.70;99.90
12815;DHT22;6472;52.328;13.070;2023-04-03T06:36:54;1.80;99.90
12815;DHT22;6472;52.328;13.070;2023-04-03T06:39:25;1.90;99.90
12815;DHT22;6472;52.328;13.070;2023-04-03T06:42:13;2.00;99.90
12815;DHT22;6472;52.328;13.070;2023-04-03T06:44:41;2.20;99.90
12815;DHT22;6472;52.328;13.070;2023-04-03T06:47:11;2.20;99.90
12815;DHT22;6472;52.328;13.070;2023-04-03T06:49:40;2.30;99.90
12815;DHT22;6472;52.328;13.070;2023-04-03T06:52:09;2.50;99.90
12815;DHT22;6472;52.328;13.070;2023-04-03T06:54:39;2.50;99.90
12815;DHT22;6472;52.328;13.070;2023-04-03T06:57:07;2.60;99.90
12815;DHT22;6472;52.328;13.070;2023-04-03T06:59:37;2.70;99.90
12815;DHT22;6472;52.328;13.070;2023-04-03T07:02:06;2.70;99.90
12815;DHT22;6472;52.328;13.070;2023-04-03T07:04:34;2.70;99.90
12815;DHT22;6472;52.328;13.070;2023-04-03T07:07:03;2.80;99.90
12815;DHT22;6472;52.328;13.070;2023-04-03T07:09:31;2.80;99.90
12815;DHT22;6472;52.328;13.070;2023-04-03T07:11:59;2.90;99.90
12815;DHT22;6472;52.328;13.070;2023-04-03T07:14:27;2.90;99.90
12815;DHT22;6472;52.328;13.070;2023-04-03T07:16:56;3.10;99.90
12815;DHT22;6472;52.328;13.070;2023-04-03T07:19:24;3.20;99.90
12815;DHT22;6472;52.328;13.070;2023-04-03T07:21:54;3.40;99.90
12815;DHT22;6472;52.328;13.070;2023-04-03T07:24:22;3.80;99.90
12815;DHT22;6472;52.328;13.070;2023-04-03T07:26:51;4.10;99.90
12815;DHT22;6472;52.328;13.070;2023-04-03T07:29:19;4.60;99.90
12815;DHT22;6472;52.328;13.070;2023-04-03T07:31:48;5.10;99.90
12815;DHT22;6472;52.328;13.070;2023-04-03T07:34:17;5.30;99.90
12815;DHT22;6472;52.328;13.070;2023-04-03T07:36:45;5.40;98.60
12815;DHT22;6472;52.328;13.070;2023-04-03T07:39:13;5.20;99.20
12815;DHT22;6472;52.328;13.070;2023-04-03T07:41:41;5.20;99.10
12815;DHT22;6472;52.328;13.070;2023-04-03T07:44:10;5.10;95.90
12815;DHT22;6472;52.328;13.070;2023-04-03T07:46:38;5.20;97.60
12815;DHT22;6472;52.328;13.070;2023-04-03T07:49:07;5.30;96.40
12815;DHT22;6472;52.328;13.070;2023-04-03T07:51:39;5.20;97.00
12815;DHT22;6472;52.328;13.070;2023-04-03T07:54:07;5.40;95.30
12815;DHT22;6472;52.328;13.070;2023-04-03T07:56:39;5.50;93.80
12815;DHT22;6472;52.328;13.070;2023-04-03T07:59:13;5.40;94.20
12815;DHT22;6472;52.328;13.070;2023-04-03T08:01:41;5.20;92.20
12815;DHT22;6472;52.328;13.070;2023-04-03T08:04:13;5.00;92.80
12815;DHT22;6472;52.328;13.070;2023-04-03T08:06:49;5.00;94.70
12815;DHT22;6472;52.328;13.070;2023-04-03T08:09:19;4.60;93.40
12815;DHT22;6472;52.328;13.070;2023-04-03T08:11:50;4.60;93.20
12815;DHT22;6472;52.328;13.070;2023-04-03T08:14:20;4.80;93.00
12815;DHT22;6472;52.328;13.070;2023-04-03T08:16:50;4.80;94.40
12815;DHT22;6472;52.328;13.070;2023-04-03T08:19:19;4.70;93.90
12815;DHT22;6472;52.328;13.070;2023-04-03T08:21:54;4.60;92.10
12815;DHT22;6472;52.328;13.070;2023-04-03T08:24:26;4.50;92.30
12815;DHT22;6472;52.328;13.070;2023-04-03T08:26:54;4.40;91.80
12815;DHT22;6472;52.328;13.070;2023-04-03T08:29:25;4.40;90.90
12815;DHT22;6472;52.328;13.070;2023-04-03T08:31:53;5.10;90.00
12815;DHT22;6472;52.328;13.070;2023-04-03T08:37:15;6.30;87.60
12815;DHT22;6472;52.328;13.070;2023-04-03T08:39:43;6.90;78.80
12815;DHT22;6472;52.328;13.070;2023-04-03T08:42:16;7.70;82.80
12815;DHT22;6472;52.328;13.070;2023-04-03T08:44:50;8.50;77.00
12815;DHT22;6472;52.328;13.070;2023-04-03T08:47:24;9.10;77.00
12815;DHT22;6472;52.328;13.070;2023-04-03T08:49:57;9.30;67.40
12815;DHT22;6472;52.328;13.070;2023-04-03T08:52:34;9.50;70.40
12815;DHT22;6472;52.328;13.070;2023-04-03T08:55:05;8.80;65.10
12815;DHT22;6472;52.328;13.070;2023-04-03T08:57:36;8.10;65.40
12815;DHT22;6472;52.328;13.070;2023-04-03T09:00:15;7.40;70.70
12815;DHT22;6472;52.328;13.070;2023-04-03T09:02:45;6.70;69.00
12815;DHT22;6472;52.328;13.070;2023-04-03T09:05:16;6.20;70.90
12815;DHT22;6472;52.328;13.070;2023-04-03T09:07:47;6.10;72.60
12815;DHT22;6472;52.328;13.070;2023-04-03T09:10:23;6.60;73.00
12815;DHT22;6472;52.328;13.070;2023-04-03T09:12:57;7.40;74.40
12815;DHT22;6472;52.328;13.070;2023-04-03T09:15:27;7.50;67.10
12815;DHT22;6472;52.328;13.070;2023-04-03T09:18:08;7.10;70.60
12815;DHT22;6472;52.328;13.070;2023-04-03T09:20:44;6.90;71.50
12815;DHT22;6472;52.328;13.070;2023-04-03T09:23:18;6.40;70.60
12815;DHT22;6472;52.328;13.070;2023-04-03T09:25:47;6.30;73.70
12815;DHT22;6472;52.328;13.070;2023-04-03T09:28:17;6.30;73.70
12815;DHT22;6472;52.328;13.070;2023-04-03T09:30:46;6.10;71.90
12815;DHT22;6472;52.328;13.070;2023-04-03T09:33:14;5.80;73.10
12815;DHT22;6472;52.328;13.070;2023-04-03T09:35:43;5.70;75.80
12815;DHT22;6472;52.328;13.070;2023-04-03T09:38:18;5.80;75.90
12815;DHT22;6472;52.328;13.070;2023-04-03T09:40:48;6.00;76.50
12815;DHT22;6472;52.328;13.070;2023-04-03T09:43:27;6.10;77.30
12815;DHT22;6472;52.328;13.070;2023-04-03T09:46:15;6.30;74.60
12815;DHT22;6472;52.328;13.070;2023-04-03T09:48:55;6.30;75.10
12815;DHT22;6472;52.328;13.070;2023-04-03T09:51:35;6.30;75.10
12815;DHT22;6472;52.328;13.070;2023-04-03T09:54:25;6.30;74.30
12815;DHT22;6472;52.328;13.070;2023-04-03T09:57:03;6.00;75.00
12815;DHT22;6472;52.328;13.070;2023-04-03T09:59:32;6.10;75.50
12815;DHT22;6472;52.328;13.070;2023-04-03T10:02:04;6.40;76.90
12815;DHT22;6472;52.328;13.070;2023-04-03T10:04:44;6.40;73.70
12815;DHT22;6472;52.328;13.070;2023-04-03T10:07:30;6.30;72.90
12815;DHT22;6472;52.328;13.070;2023-04-03T10:10:02;6.00;73.80
12815;DHT22;6472;52.328;13.070;2023-04-03T10:12:31;5.90;74.40
12815;DHT22;6472;52.328;13.070;2023-04-03T10:15:00;5.80;73.40
12815;DHT22;6472;52.328;13.070;2023-04-03T10:17:39;5.90;73.20
12815;DHT22;6472;52.328;13.070;2023-04-03T10:20:25;6.20;74.30
12815;DHT22;6472;52.328;13.070;2023-04-03T10:23:02;6.40;74.40
12815;DHT22;6472;52.328;13.070;2023-04-03T10:25:40;6.60;72.80
12815;DHT22;6472;52.328;13.070;2023-04-03T10:28:14;6.50;71.20
12815;DHT22;6472;52.328;13.070;2023-04-03T10:30:50;6.80;73.90
12815;DHT22;6472;52.328;13.070;2023-04-03T10:33:32;7.30;71.70
12815;DHT22;6472;52.328;13.070;2023-04-03T10:36:10;7.10;69.10
12815;DHT22;6472;52.328;13.070;2023-04-03T10:38:46;6.80;70.50
12815;DHT22;6472;52.328;13.070;2023-04-03T10:41:23;6.70;69.80
12815;DHT22;6472;52.328;13.070;2023-04-03T10:44:05;6.80;68.40
12815;DHT22;6472;52.328;13.070;2023-04-03T10:46:37;6.70;67.80
12815;DHT22;6472;52.328;13.070;2023-04-03T10:49:18;6.80;67.10
12815;DHT22;6472;52.328;13.070;2023-04-03T10:51:55;6.80;67.50
12815;DHT22;6472;52.328;13.070;2023-04-03T10:54:29;7.00;70.50
12815;DHT22;6472;52.328;13.070;2023-04-03T10:57:04;7.20;68.30
12815;DHT22;6472;52.328;13.070;2023-04-03T10:59:41;7.40;69.10
12815;DHT22;6472;52.328;13.070;2023-04-03T11:02:16;7.40;67.00
12815;DHT22;6472;52.328;13.070;2023-04-03T11:04:50;7.30;70.60
12815;DHT22;6472;52.328;13.070;2023-04-03T11:07:22;7.20;68.70
12815;DHT22;6472;52.328;13.070;2023-04-03T11:09:55;7.00;67.10
12815;DHT22;6472;52.328;13.070;2023-04-03T11:12:28;6.90;67.90
12815;DHT22;6472;52.328;13.070;2023-04-03T11:15:02;6.90;68.40
12815;DHT22;6472;52.328;13.070;2023-04-03T11:17:35;7.00;69.80
12815;DHT22;6472;52.328;13.070;2023-04-03T11:20:08;7.00;69.20
12815;DHT22;6472;52.328;13.070;2023-04-03T11:22:42;6.80;68.30
12815;DHT22;6472;52.328;13.070;2023-04-03T11:25:17;6.90;68.90
12815;DHT22;6472;52.328;13.070;2023-04-03T11:27:54;6.80;68.80
12815;DHT22;6472;52.328;13.070;2023-04-03T11:30:25;6.90;69.00
12815;DHT22;6472;52.328;13.070;2023-04-03T11:33:09;7.00;68.00
12815;DHT22;6472;52.328;13.070;2023-04-03T11:35:43;7.10;68.80
12815;DHT22;6472;52.328;13.070;2023-04-03T11:38:19;7.00;66.80
12815;DHT22;6472;52.328;13.070;2023-04-03T11:40:49;7.10;66.70
12815;DHT22;6472;52.328;13.070;2023-04-03T11:43:24;7.10;66.10
12815;DHT22;6472;52.328;13.070;2023-04-03T11:45:55;7.00;67.10
12815;DHT22;6472;52.328;13.070;2023-04-03T11:48:51;6.90;65.40
12815;DHT22;6472;52.328;13.070;2023-04-03T11:51:41;7.00;66.90
12815;DHT22;6472;52.328;13.070;2023-04-03T11:57:43;7.00;66.40
12815;DHT22;6472;52.328;13.070;2023-04-03T12:00:49;7.20;65.50
12815;DHT22;6472;52.328;13.070;2023-04-03T12:10:17;7.30;66.00
12815;DHT22;6472;52.328;13.070;2023-04-03T12:13:00;7.30;65.70
12815;DHT22;6472;52.328;13.070;2023-04-03T12:15:50;7.10;67.00
12815;DHT22;6472;52.328;13.070;2023-04-03T12:18:42;7.10;65.20
12815;DHT22;6472;52.328;13.070;2023-04-03T12:21:11;7.20;68.20
12815;DHT22;6472;52.328;13.070;2023-04-03T12:24:02;7.40;67.60
12815;DHT22;6472;52.328;13.070;2023-04-03T12:26:40;7.50;65.60
12815;DHT22;6472;52.328;13.070;2023-04-03T12:29:18;7.20;64.90
12815;DHT22;6472;52.328;13.070;2023-04-03T12:31:58;6.90;64.60
12815;DHT22;6472;52.328;13.070;2023-04-03T12:34:52;7.00;66.00
12815;DHT22;6472;52.328;13.070;2023-04-03T12:37:39;6.90;65.20
12815;DHT22;6472;52.328;13.070;2023-04-03T12:40:21;7.00;64.90
12815;DHT22;6472;52.328;13.070;2023-04-03T12:43:11;7.00;66.80
12815;DHT22;6472;52.328;13.070;2023-04-03T12:45:49;6.90;63.90
12815;DHT22;6472;52.328;13.070;2023-04-03T12:48:25;6.90;66.30
12815;DHT22;6472;52.328;13.070;2023-04-03T12:50:54;6.90;67.30
12815;DHT22;6472;52.328;13.070;2023-04-03T12:53:24;7.00;67.90
12815;DHT22;6472;52.328;13.070;2023-04-03T12:55:54;7.10;69.20
12815;DHT22;6472;52.328;13.070;2023-04-03T12:58:24;6.90;66.70
12815;DHT22;6472;52.328;13.070;2023-04-03T13:01:01;6.80;67.40
12815;DHT22;6472;52.328;13.070;2023-04-03T13:03:31;6.70;69.00
12815;DHT22;6472;52.328;13.070;2023-04-03T13:06:01;6.80;68.20
12815;DHT22;6472;52.328;13.070;2023-04-03T13:08:30;6.90;69.70
12815;DHT22;6472;52.328;13.070;2023-04-03T13:11:00;7.00;69.80
12815;DHT22;6472;52.328;13.070;2023-04-03T13:13:29;7.00;66.70
12815;DHT22;6472;52.328;13.070;2023-04-03T13:15:58;6.90;66.40
12815;DHT22;6472;52.328;13.070;2023-04-03T13:18:31;6.70;68.10
12815;DHT22;6472;52.328;13.070;2023-04-03T13:21:03;6.80;66.50
12815;DHT22;6472;52.328;13.070;2023-04-03T13:23:34;6.90;67.90
12815;DHT22;6472;52.328;13.070;2023-04-03T13:26:04;6.90;68.80
12815;DHT22;6472;52.328;13.070;2023-04-03T13:28:35;6.70;67.60
12815;DHT22;6472;52.328;13.070;2023-04-03T13:31:06;6.60;68.80
12815;DHT22;6472;52.328;13.070;2023-04-03T13:33:56;6.60;66.60
12815;DHT22;6472;52.328;13.070;2023-04-03T13:36:27;6.60;67.30
12815;DHT22;6472;52.328;13.070;2023-04-03T13:39:06;6.60;68.10
12815;DHT22;6472;52.328;13.070;2023-04-03T13:41:36;6.60;68.20
12815;DHT22;6472;52.328;13.070;2023-04-03T13:44:28;6.60;66.80
12815;DHT22;6472;52.328;13.070;2023-04-03T13:46:59;6.50;68.20
12815;DHT22;6472;52.328;13.070;2023-04-03T13:49:34;6.50;68.60
12815;DHT22;6472;52.328;13.070;2023-04-03T13:52:22;6.60;68.30
12815;DHT22;6472;52.328;13.070;2023-04-03T13:54:52;6.60;66.40
12815;DHT22;6472;52.328;13.070;2023-04-03T13:57:22;6.70;68.10
12815;DHT22;6472;52.328;13.070;2023-04-03T13:59:50;6.70;66.50
12815;DHT22;6472;52.328;13.070;2023-04-03T14:02:22;6.60;63.80
12815;DHT22;6472;52.328;13.070;2023-04-03T14:04:54;6.40;66.50
12815;DHT22;6472;52.328;13.070;2023-04-03T14:07:25;6.40;67.50
12815;DHT22;6472;52.328;13.070;2023-04-03T14:09:55;6.20;66.00
12815;DHT22;6472;52.328;13.070;2023-04-03T14:19:25;6.00;68.80
12815;DHT22;6472;52.328;13.070;2023-04-03T14:21:55;6.00;70.70
12815;DHT22;6472;52.328;13.070;2023-04-03T14:24:24;6.10;71.50
12815;DHT22;6472;52.328;13.070;2023-04-03T14:26:55;6.10;70.80
12815;DHT22;6472;52.328;13.070;2023-04-03T14:29:23;6.00;69.40
12815;DHT22;6472;52.328;13.070;2023-04-03T14:31:51;5.90;71.30
12815;DHT22;6472;52.328;13.070;2023-04-03T14:34:37;5.90;71.20
12815;DHT22;6472;52.328;13.070;2023-04-03T14:37:10;6.00;72.40
12815;DHT22;6472;52.328;13.070;2023-04-03T14:39:38;6.00;73.20
12815;DHT22;6472;52.328;13.070;2023-04-03T14:42:12;6.00;71.90
12815;DHT22;6472;52.328;13.070;2023-04-03T14:44:41;6.00;70.00
12815;DHT22;6472;52.328;13.070;2023-04-03T14:47:11;6.00;72.10
12815;DHT22;6472;52.328;13.070;2023-04-03T14:49:57;6.00;71.90
12815;DHT22;6472;52.328;13.070;2023-04-03T14:52:30;6.00;72.20
12815;DHT22;6472;52.328;13.070;2023-04-03T14:54:59;5.90;68.20
12815;DHT22;6472;52.328;13.070;2023-04-03T14:57:28;5.90;70.20
12815;DHT22;6472;52.328;13.070;2023-04-03T14:59:57;5.80;70.50
12815;DHT22;6472;52.328;13.070;2023-04-03T15:02:28;5.60;72.10
12815;DHT22;6472;52.328;13.070;2023-04-03T15:04:59;5.40;73.90
12815;DHT22;6472;52.328;13.070;2023-04-03T15:07:31;5.40;72.60
12815;DHT22;6472;52.328;13.070;2023-04-03T15:10:02;5.30;74.10
12815;DHT22;6472;52.328;13.070;2023-04-03T15:12:30;5.20;74.30
12815;DHT22;6472;52.328;13.070;2023-04-03T15:14:58;5.20;75.60
12815;DHT22;6472;52.328;13.070;2023-04-03T15:17:29;5.20;76.40
12815;DHT22;6472;52.328;13.070;2023-04-03T15:19:58;5.10;75.30
12815;DHT22;6472;52.328;13.070;2023-04-03T15:22:27;5.20;76.40
12815;DHT22;6472;52.328;13.070;2023-04-03T15:24:56;5.20;75.80
12815;DHT22;6472;52.328;13.070;2023-04-03T15:27:24;5.20;77.60
12815;DHT22;6472;52.328;13.070;2023-04-03T15:29:52;5.30;77.80
12815;DHT22;6472;52.328;13.070;2023-04-03T15:32:20;5.30;77.00
12815;DHT22;6472;52.328;13.070;2023-04-03T15:34:48;5.50;76.40
12815;DHT22;6472;52.328;13.070;2023-04-03T15:37:18;5.60;76.00
12815;DHT22;6472;52.328;13.070;2023-04-03T15:39:47;5.60;75.50
12815;DHT22;6472;52.328;13.070;2023-04-03T15:42:16;5.70;76.60
12815;DHT22;6472;52.328;13.070;2023-04-03T15:44:43;5.70;77.90
12815;DHT22;6472;52.328;13.070;2023-04-03T15:47:12;5.70;76.40
12815;DHT22;6472;52.328;13.070;2023-04-03T15:49:40;5.60;77.20
12815;DHT22;6472;52.328;13.070;2023-04-03T15:52:08;5.50;75.50
12815;DHT22;6472;52.328;13.070;2023-04-03T15:54:36;5.50;73.10
12815;DHT22;6472;52.328;13.070;2023-04-03T15:57:05;5.40;75.00
12815;DHT22;6472;52.328;13.070;2023-04-03T15:59:33;5.40;75.00
12815;DHT22;6472;52.328;13.070;2023-04-03T16:02:04;5.40;76.50
12815;DHT22;6472;52.328;13.070;2023-04-03T16:04:34;5.40;75.00
12815;DHT22;6472;52.328;13.070;2023-04-03T16:07:02;5.30;74.90
12815;DHT22;6472;52.328;13.070;2023-04-03T16:09:32;5.20;75.50
12815;DHT22;6472;52.328;13.070;2023-04-03T16:12:00;5.10;75.80
12815;DHT22;6472;52.328;13.070;2023-04-03T16:14:30;4.90;77.60
12815;DHT22;6472;52.328;13.070;2023-04-03T16:16:58;4.80;78.70
12815;DHT22;6472;52.328;13.070;2023-04-03T16:19:26;4.80;78.30
12815;DHT22;6472;52.328;13.070;2023-04-03T16:21:55;4.60;79.00
12815;DHT22;6472;52.328;13.070;2023-04-03T16:24:23;4.60;79.00
12815;DHT22;6472;52.328;13.070;2023-04-03T16:26:51;4.50;80.20
12815;DHT22;6472;52.328;13.070;2023-04-03T16:29:20;4.50;80.70